createdAt,value
2023-08-13T00:00:00.272Z,4.38
2023-08-13T00:02:29.482Z,2.53
2023-08-13T00:04:57.260Z,3.33
2023-08-13T00:07:24.990Z,3.22
2023-08-13T00:09:52.699Z,7.38
2023-08-13T00:12:20.455Z,2.80
2023-08-13T00:14:48.131Z,3.65
2023-08-13T00:17:16.365Z,3.13
2023-08-13T00:19:45.682Z,2.58
2023-08-13T00:22:13.405Z,2.77
2023-08-13T00:24:41.228Z,2.53
2023-08-13T00:27:08.999Z,2.70
2023-08-13T00:29:38.993Z,2.47
2023-08-13T00:32:06.795Z,3.47
2023-08-13T00:34:34.547Z,4.70
2023-08-13T00:37:03.616Z,4.47
2023-08-13T00:39:31.391Z,1.90
2023-08-13T00:41:59.138Z,4.57
2023-08-13T00:44:26.881Z,2.60
2023-08-13T00:46:55.452Z,4.23
2023-08-13T00:49:25.205Z,2.03
2023-08-13T00:51:53.092Z,1.93
2023-08-13T00:54:22.844Z,4.73
2023-08-13T00:56:52.758Z,3.03
2023-08-13T00:59:22.114Z,2.93
2023-08-13T01:01:50.001Z,4.23
2023-08-13T01:04:17.806Z,3.20
2023-08-13T01:06:48.513Z,5.03
2023-08-13T01:09:20.844Z,1.63
2023-08-13T01:11:53.000Z,6.17
2023-08-13T01:14:23.347Z,3.93
2023-08-13T01:16:52.079Z,3.60
2023-08-13T01:19:19.925Z,2.73
2023-08-13T01:21:48.218Z,2.70
2023-08-13T01:24:17.333Z,4.30
2023-08-13T01:26:50.245Z,3.50
2023-08-13T01:29:20.954Z,3.37
2023-08-13T01:31:50.536Z,2.93
2023-08-13T01:34:18.864Z,5.00
2023-08-13T01:36:47.566Z,2.90
2023-08-13T01:39:15.405Z,3.73
2023-08-13T01:41:47.367Z,2.57
2023-08-13T01:44:15.402Z,4.33
2023-08-13T01:46:43.172Z,2.60
2023-08-13T01:49:10.904Z,3.23
2023-08-13T01:51:38.646Z,2.90
2023-08-13T01:54:06.436Z,3.57
2023-08-13T01:56:34.317Z,4.47
2023-08-13T01:59:03.477Z,4.87
2023-08-13T02:01:31.348Z,2.37
2023-08-13T02:03:59.066Z,6.47
2023-08-13T02:06:26.801Z,2.40
2023-08-13T02:08:54.576Z,3.07
2023-08-13T02:11:22.246Z,3.83
2023-08-13T02:13:50.432Z,3.80
2023-08-13T02:16:19.645Z,2.28
2023-08-13T02:18:47.406Z,4.50
2023-08-13T02:21:15.171Z,4.55
2023-08-13T02:23:42.876Z,3.03
2023-08-13T02:26:10.592Z,2.50
2023-08-13T02:28:38.277Z,2.97
2023-08-13T02:31:05.985Z,4.68
2023-08-13T02:33:35.080Z,3.65
2023-08-13T02:36:02.870Z,2.88
2023-08-13T02:38:30.740Z,2.90
2023-08-13T02:40:58.618Z,3.85
2023-08-13T02:43:28.624Z,3.83
2023-08-13T02:45:56.374Z,5.28
2023-08-13T02:48:24.149Z,2.97
2023-08-13T02:50:53.364Z,2.15
2023-08-13T02:53:21.089Z,2.88
2023-08-13T02:55:50.251Z,5.60
2023-08-13T02:58:17.948Z,2.42
2023-08-13T03:00:45.635Z,1.98
2023-08-13T03:03:13.472Z,3.75
2023-08-13T03:05:41.239Z,3.05
2023-08-13T03:08:10.337Z,3.45
2023-08-13T03:10:38.002Z,2.80
2023-08-13T03:13:05.799Z,1.98
2023-08-13T03:15:33.586Z,3.13
2023-08-13T03:18:01.421Z,2.03
2023-08-13T03:20:29.184Z,2.28
2023-08-13T03:22:57.311Z,4.43
2023-08-13T03:25:26.621Z,2.63
2023-08-13T03:27:54.363Z,3.17
2023-08-13T03:30:22.155Z,1.73
2023-08-13T03:32:49.879Z,3.42
2023-08-13T03:35:17.741Z,3.33
2023-08-13T03:37:45.866Z,3.22
2023-08-13T03:40:14.117Z,7.00
2023-08-13T03:42:43.352Z,3.13
2023-08-13T03:45:11.246Z,2.90
2023-08-13T03:47:39.190Z,3.40
2023-08-13T03:50:07.338Z,2.53
2023-08-13T03:52:35.243Z,2.50
2023-08-13T03:55:03.638Z,2.83
2023-08-13T03:57:31.367Z,5.57
2023-08-13T04:00:00.413Z,2.40
2023-08-13T04:02:28.302Z,3.63
2023-08-13T04:04:56.138Z,2.80
2023-08-13T04:07:23.886Z,3.17
2023-08-13T04:09:51.611Z,1.98
2023-08-13T04:12:19.325Z,2.72
2023-08-13T04:14:47.969Z,3.92
2023-08-13T04:17:17.075Z,1.73
2023-08-13T04:19:44.850Z,3.88
2023-08-13T04:22:12.812Z,1.58
2023-08-13T04:24:40.782Z,1.75
2023-08-13T04:27:08.603Z,1.88
2023-08-13T04:29:36.459Z,2.33
2023-08-13T04:32:04.318Z,2.97
2023-08-13T04:34:33.523Z,3.35
2023-08-13T04:37:01.418Z,2.72
2023-08-13T04:39:30.367Z,2.88
2023-08-13T04:42:00.340Z,2.47
2023-08-13T04:44:28.116Z,3.60
2023-08-13T04:46:55.917Z,4.13
2023-08-13T04:49:23.803Z,2.83
2023-08-13T04:51:53.310Z,1.77
2023-08-13T04:54:21.068Z,2.05
2023-08-13T04:56:48.818Z,3.87
2023-08-13T04:59:16.644Z,1.43
2023-08-13T05:01:44.506Z,4.47
2023-08-13T05:04:13.539Z,5.70
2023-08-13T05:06:41.341Z,3.80
2023-08-13T05:09:10.540Z,3.13
2023-08-13T05:11:38.259Z,3.50
2023-08-13T05:14:05.992Z,2.67
2023-08-13T05:16:33.709Z,2.90
2023-08-13T05:19:01.630Z,2.40
2023-08-13T05:21:29.347Z,1.63
2023-08-13T05:23:57.116Z,3.20
2023-08-13T05:26:26.303Z,3.85
2023-08-13T05:28:54.099Z,2.93
2023-08-13T05:31:21.988Z,2.63
2023-08-13T05:33:49.746Z,4.00
2023-08-13T05:36:17.493Z,5.60
2023-08-13T05:38:45.231Z,5.32
2023-08-13T05:41:12.953Z,2.07
2023-08-13T05:43:42.256Z,2.80
2023-08-13T05:46:10.168Z,1.60
2023-08-13T05:48:38.433Z,1.67
2023-08-13T05:51:06.956Z,4.60
2023-08-13T05:53:34.900Z,2.55
2023-08-13T05:56:02.607Z,2.35
2023-08-13T05:58:30.324Z,1.90
2023-08-13T06:00:59.563Z,2.67
2023-08-13T06:03:27.942Z,3.88
2023-08-13T06:05:56.063Z,2.55
2023-08-13T06:08:24.266Z,4.85
2023-08-13T06:10:51.990Z,2.53
2023-08-13T06:13:19.674Z,2.28
2023-08-13T06:15:48.516Z,2.72
2023-08-13T06:18:18.349Z,2.33
2023-08-13T06:20:46.125Z,4.13
2023-08-13T06:23:13.883Z,2.55
2023-08-13T06:25:41.805Z,3.30
2023-08-13T06:28:10.198Z,3.05
2023-08-13T06:30:37.999Z,2.42
2023-08-13T06:33:06.011Z,2.70
2023-08-13T06:35:35.167Z,2.35
2023-08-13T06:38:03.349Z,3.67
2023-08-13T06:40:31.121Z,1.52
2023-08-13T06:42:58.834Z,2.00
2023-08-13T06:45:28.546Z,7.97
2023-08-13T06:47:56.571Z,2.60
2023-08-13T06:50:24.382Z,2.63
2023-08-13T06:52:53.501Z,3.15
2023-08-13T06:55:21.229Z,4.38
2023-08-13T06:57:47.999Z,1.30
2023-08-13T07:00:16.274Z,1.63
2023-08-13T07:02:44.450Z,2.53
2023-08-13T07:05:14.154Z,3.00
2023-08-13T07:07:42.351Z,2.00
2023-08-13T07:10:12.141Z,2.00
2023-08-13T07:12:39.893Z,1.67
2023-08-13T07:15:08.918Z,1.37
2023-08-13T07:17:37.507Z,1.57
2023-08-13T07:20:10.687Z,2.93
2023-08-13T07:22:38.748Z,1.67
2023-08-13T07:25:06.906Z,3.83
2023-08-13T07:27:36.194Z,2.37
2023-08-13T07:30:04.044Z,1.77
2023-08-13T07:32:31.811Z,1.90
2023-08-13T07:34:59.603Z,1.87
2023-08-13T07:37:27.917Z,1.83
2023-08-13T07:39:55.694Z,1.77
2023-08-13T07:42:23.412Z,1.97
2023-08-13T07:44:52.550Z,2.40
2023-08-13T07:47:20.661Z,4.63
2023-08-13T07:49:48.498Z,1.80
2023-08-13T07:52:16.562Z,1.63
2023-08-13T07:54:44.486Z,2.23
2023-08-13T07:57:12.233Z,2.53
2023-08-13T07:59:40.218Z,3.07
2023-08-13T08:02:09.645Z,3.57
2023-08-13T08:04:37.342Z,3.60
2023-08-13T08:07:05.107Z,3.20
2023-08-13T08:09:32.809Z,1.13
2023-08-13T08:12:00.562Z,2.22
2023-08-13T08:14:28.246Z,3.53
2023-08-13T08:17:01.289Z,2.30
2023-08-13T08:19:30.416Z,1.58
2023-08-13T08:21:59.739Z,2.40
2023-08-13T08:24:27.579Z,1.88
2023-08-13T08:26:55.278Z,2.00
2023-08-13T08:29:22.981Z,1.30
2023-08-13T08:31:51.168Z,1.75
2023-08-13T08:34:18.938Z,2.03
2023-08-13T08:36:48.124Z,2.45
2023-08-13T08:39:15.863Z,2.33
2023-08-13T08:41:48.099Z,1.92
2023-08-13T08:44:19.536Z,2.05
2023-08-13T08:46:48.608Z,1.60
2023-08-13T08:49:16.916Z,3.20
2023-08-13T08:51:44.855Z,1.83
2023-08-13T08:54:13.956Z,2.30
2023-08-13T08:56:41.845Z,2.53
2023-08-13T08:59:09.658Z,2.42
2023-08-13T09:01:37.404Z,3.15
2023-08-13T09:04:05.625Z,1.27
2023-08-13T09:06:52.260Z,1.55
2023-08-13T09:09:21.383Z,1.48
2023-08-13T09:11:49.132Z,2.72
2023-08-13T09:14:16.970Z,1.50
2023-08-13T09:16:46.224Z,1.80
2023-08-13T09:19:14.511Z,3.42
2023-08-13T09:21:42.772Z,5.70
2023-08-13T09:24:10.668Z,3.00
2023-08-13T09:26:39.875Z,0.98
2023-08-13T09:29:08.269Z,1.73
2023-08-13T09:31:36.269Z,1.50
2023-08-13T09:34:04.652Z,2.88
2023-08-13T09:36:34.142Z,1.40
2023-08-13T09:39:01.885Z,1.90
2023-08-13T09:41:29.885Z,1.58
2023-08-13T09:44:01.414Z,2.75
2023-08-13T09:46:30.043Z,1.52
2023-08-13T09:49:00.261Z,2.15
2023-08-13T09:51:38.589Z,2.38
2023-08-13T09:54:11.877Z,1.80
2023-08-13T09:56:41.654Z,2.00
2023-08-13T09:59:10.938Z,3.03
2023-08-13T10:01:39.219Z,2.10
2023-08-13T10:04:08.043Z,2.72
2023-08-13T10:06:36.874Z,2.53
2023-08-13T10:09:04.858Z,2.38
2023-08-13T10:11:34.072Z,1.50
2023-08-13T10:14:03.204Z,1.63
2023-08-13T10:16:32.361Z,1.92
2023-08-13T10:19:03.451Z,2.65
2023-08-13T10:21:34.584Z,3.00
2023-08-13T10:24:02.870Z,1.02
2023-08-13T10:26:30.615Z,1.92
2023-08-13T10:28:59.526Z,2.65
2023-08-13T10:31:37.760Z,3.25
2023-08-13T10:34:10.135Z,12.57
2023-08-13T10:36:53.918Z,3.70
2023-08-13T10:39:31.338Z,3.45
2023-08-13T10:41:59.070Z,4.45
2023-08-13T10:44:30.574Z,3.30
2023-08-13T10:47:00.142Z,2.17
2023-08-13T10:49:28.727Z,2.72
2023-08-13T10:51:56.467Z,4.38
2023-08-13T10:54:26.718Z,1.98
2023-08-13T10:56:54.964Z,2.72
2023-08-13T10:59:29.216Z,3.40
2023-08-13T11:02:11.800Z,2.80
2023-08-13T11:04:41.810Z,1.58
2023-08-13T11:07:09.996Z,1.52
2023-08-13T11:09:38.154Z,2.70
2023-08-13T11:12:06.388Z,3.35
2023-08-13T11:14:34.213Z,2.78
2023-08-13T11:17:02.222Z,1.70
2023-08-13T11:19:30.307Z,2.90
2023-08-13T11:22:00.648Z,2.40
2023-08-13T11:24:28.454Z,1.90
2023-08-13T11:26:56.155Z,5.40
2023-08-13T11:29:24.091Z,2.20
2023-08-13T11:31:52.025Z,2.92
2023-08-13T11:34:19.743Z,2.60
2023-08-13T11:36:47.955Z,1.88
2023-08-13T11:39:18.786Z,2.35
2023-08-13T11:41:46.948Z,2.47
2023-08-13T11:44:14.760Z,2.28
2023-08-13T11:46:55.169Z,2.38
2023-08-13T11:49:22.964Z,2.38
2023-08-13T11:51:51.268Z,4.93
2023-08-13T11:54:21.486Z,5.43
2023-08-13T11:56:51.714Z,2.10
2023-08-13T11:59:25.881Z,3.55
2023-08-13T12:01:54.916Z,3.03
2023-08-13T12:04:23.703Z,1.95
2023-08-13T12:06:53.953Z,3.38
2023-08-13T12:09:23.125Z,4.90
2023-08-13T12:11:50.824Z,2.65
2023-08-13T12:14:18.545Z,3.92
2023-08-13T12:16:46.268Z,3.22
2023-08-13T12:19:14.062Z,2.17
2023-08-13T12:21:41.751Z,3.65
2023-08-13T12:24:09.835Z,2.35
2023-08-13T12:26:38.946Z,4.07
2023-08-13T12:29:06.940Z,2.95
2023-08-13T12:31:34.706Z,4.97
2023-08-13T12:34:02.414Z,3.75
2023-08-13T12:36:30.483Z,5.95
2023-08-13T12:38:58.191Z,3.13
2023-08-13T12:41:34.800Z,3.30
2023-08-13T12:44:08.533Z,1.95
2023-08-13T12:46:36.433Z,2.08
2023-08-13T12:49:04.744Z,2.75
2023-08-13T12:51:32.804Z,5.95
2023-08-13T12:54:00.551Z,3.38
2023-08-13T12:56:28.447Z,3.45
2023-08-13T12:58:56.174Z,2.40
2023-08-13T13:01:25.393Z,3.53
2023-08-13T13:03:53.477Z,2.33
2023-08-13T13:06:21.254Z,2.33
2023-08-13T13:08:49.012Z,3.15
2023-08-13T13:11:16.945Z,4.10
2023-08-13T13:13:45.078Z,3.15
2023-08-13T13:16:14.963Z,2.55
2023-08-13T13:18:45.046Z,3.72
2023-08-13T13:21:12.765Z,3.65
2023-08-13T13:23:40.555Z,2.38
2023-08-13T13:26:08.337Z,3.63
2023-08-13T13:28:36.211Z,4.40
2023-08-13T13:31:04.846Z,2.28
2023-08-13T13:33:32.886Z,3.17
2023-08-13T13:36:02.114Z,3.65
2023-08-13T13:38:29.847Z,3.50
2023-08-13T13:40:57.608Z,3.15
2023-08-13T13:43:25.298Z,4.13
2023-08-13T13:45:53.075Z,2.78
2023-08-13T13:48:20.800Z,2.90
2023-08-13T13:50:48.510Z,3.35
2023-08-13T13:53:20.532Z,2.63
2023-08-13T13:55:48.876Z,3.42
2023-08-13T13:58:16.781Z,3.42
2023-08-13T14:00:45.465Z,3.50
2023-08-13T14:03:13.355Z,4.55
2023-08-13T14:05:41.204Z,4.40
2023-08-13T14:08:08.901Z,5.07
2023-08-13T14:10:38.025Z,2.55
2023-08-13T14:13:05.916Z,3.55
2023-08-13T14:15:33.685Z,5.22
2023-08-13T14:18:03.471Z,3.30
2023-08-13T14:20:33.711Z,3.20
2023-08-13T14:23:01.419Z,3.42
2023-08-13T14:25:29.659Z,2.78
2023-08-13T14:27:58.770Z,2.97
2023-08-13T14:30:26.649Z,4.35
2023-08-13T14:32:54.435Z,3.65
2023-08-13T14:35:22.225Z,2.58
2023-08-13T14:37:49.994Z,4.30
2023-08-13T14:40:18.055Z,4.85
2023-08-13T14:42:45.785Z,5.45
2023-08-13T14:45:14.964Z,5.03
2023-08-13T14:47:42.760Z,3.58
2023-08-13T14:50:10.669Z,5.93
2023-08-13T14:52:38.867Z,2.25
2023-08-13T14:55:06.997Z,3.58
2023-08-13T14:57:34.789Z,4.07
2023-08-13T15:00:02.655Z,8.45
2023-08-13T15:02:31.862Z,2.20
2023-08-13T15:04:59.690Z,3.28
2023-08-13T15:07:27.514Z,3.60
2023-08-13T15:09:55.469Z,7.22
2023-08-13T15:12:39.539Z,2.80
2023-08-13T15:15:10.288Z,5.97
2023-08-13T15:17:39.639Z,3.38
2023-08-13T15:20:08.908Z,3.58
2023-08-13T15:22:36.691Z,2.63
2023-08-13T15:25:04.777Z,2.33
2023-08-13T15:27:32.684Z,3.92
2023-08-13T15:30:00.510Z,3.08
2023-08-13T15:32:28.217Z,4.65
2023-08-13T15:34:57.587Z,3.13
2023-08-13T15:37:25.356Z,4.18
2023-08-13T15:39:53.108Z,3.70
2023-08-13T15:42:20.842Z,2.63
2023-08-13T15:44:48.589Z,3.47
2023-08-13T15:47:16.320Z,3.60
2023-08-13T15:49:44.016Z,5.78
2023-08-13T15:52:13.148Z,4.20
2023-08-13T15:54:40.876Z,4.55
2023-08-13T15:57:08.719Z,3.20
2023-08-13T15:59:36.770Z,2.72
2023-08-13T16:02:05.167Z,4.43
2023-08-13T16:04:32.940Z,4.85
2023-08-13T16:07:00.614Z,4.15
2023-08-13T16:09:29.796Z,3.08
2023-08-13T16:11:57.541Z,3.03
2023-08-13T16:14:25.486Z,6.00
2023-08-13T16:16:53.341Z,4.32
2023-08-13T16:19:21.217Z,5.95
2023-08-13T16:21:49.286Z,3.45
2023-08-13T16:24:17.004Z,2.95
2023-08-13T16:26:46.098Z,3.55
2023-08-13T16:29:13.872Z,5.70
2023-08-13T16:31:41.591Z,10.20
2023-08-13T16:34:09.850Z,9.02
2023-08-13T16:36:39.374Z,7.85
2023-08-13T16:39:07.171Z,3.88
2023-08-13T16:41:34.955Z,4.60
2023-08-13T16:44:04.363Z,5.75
2023-08-13T16:46:32.165Z,5.50
2023-08-13T16:49:00.136Z,4.13
2023-08-13T16:51:30.621Z,3.38
2023-08-13T16:53:58.520Z,5.80
2023-08-13T16:56:27.838Z,5.07
2023-08-13T16:58:55.973Z,3.88
2023-08-13T17:01:25.343Z,7.25
2023-08-13T17:03:53.331Z,4.15
2023-08-13T17:06:21.128Z,4.65
2023-08-13T17:08:49.502Z,3.88
2023-08-13T17:11:17.753Z,4.28
2023-08-13T17:13:45.595Z,7.35
2023-08-13T17:16:13.602Z,6.65
2023-08-13T17:18:42.792Z,7.50
2023-08-13T17:21:10.934Z,9.48
2023-08-13T17:23:38.946Z,5.72
2023-08-13T17:26:06.800Z,10.07
2023-08-13T17:28:34.946Z,7.70
2023-08-13T17:31:02.691Z,6.88
2023-08-13T17:33:30.457Z,7.90
2023-08-13T17:35:59.822Z,5.43
2023-08-13T17:38:29.101Z,5.32
2023-08-13T17:40:56.996Z,6.13
2023-08-13T17:43:24.809Z,9.55
2023-08-13T17:45:52.627Z,5.82
2023-08-13T17:48:20.414Z,6.45
2023-08-13T17:50:48.151Z,6.35
2023-08-13T17:53:17.281Z,5.20
2023-08-13T17:55:45.077Z,5.97
2023-08-13T17:58:12.887Z,6.45
2023-08-13T18:00:40.659Z,4.20
2023-08-13T18:03:08.556Z,4.50
2023-08-13T18:05:36.336Z,5.82
2023-08-13T18:08:12.523Z,4.90
2023-08-13T18:10:44.277Z,6.97
2023-08-13T18:13:12.066Z,5.03
2023-08-13T18:15:39.906Z,6.85
2023-08-13T18:18:09.962Z,8.77
2023-08-13T18:20:37.810Z,5.30
2023-08-13T18:23:05.606Z,6.65
2023-08-13T18:25:33.366Z,8.25
2023-08-13T18:28:02.552Z,7.55
2023-08-13T18:30:30.397Z,6.82
2023-08-13T18:32:58.203Z,9.73
2023-08-13T18:35:26.149Z,5.13
2023-08-13T18:37:53.862Z,7.82
2023-08-13T18:40:21.577Z,6.20
2023-08-13T18:42:49.379Z,7.97
2023-08-13T18:45:20.102Z,4.25
2023-08-13T18:47:48.131Z,5.07
2023-08-13T18:50:16.183Z,6.95
2023-08-13T18:52:45.427Z,7.07
2023-08-13T18:55:13.174Z,5.47
2023-08-13T18:57:41.519Z,6.88
2023-08-13T19:00:11.567Z,10.45
2023-08-13T19:02:40.865Z,10.00
2023-08-13T19:05:08.906Z,5.90
2023-08-13T19:07:36.629Z,9.10
2023-08-13T19:10:04.645Z,6.93
2023-08-13T19:12:32.508Z,7.83
2023-08-13T19:15:00.283Z,9.77
2023-08-13T19:17:28.015Z,5.47
2023-08-13T19:19:57.190Z,7.80
2023-08-13T19:22:25.269Z,8.23
2023-08-13T19:24:53.122Z,7.20
2023-08-13T19:27:21.001Z,6.80
2023-08-13T19:29:48.783Z,8.10
2023-08-13T19:32:16.900Z,10.00
2023-08-13T19:34:46.048Z,7.88
2023-08-13T19:37:16.362Z,7.63
2023-08-13T19:39:44.061Z,6.13
2023-08-13T19:42:11.819Z,7.05
2023-08-13T19:44:39.591Z,9.55
2023-08-13T19:47:10.460Z,6.57
2023-08-13T19:49:38.374Z,6.70
2023-08-13T19:52:06.440Z,8.60
2023-08-13T19:54:35.772Z,7.90
2023-08-13T19:57:03.499Z,8.20
2023-08-13T19:59:31.876Z,7.03
2023-08-13T20:01:59.880Z,8.05
2023-08-13T20:04:27.755Z,6.43
2023-08-13T20:06:55.574Z,6.18
2023-08-13T20:09:23.508Z,7.00
2023-08-13T20:11:52.664Z,5.32
2023-08-13T20:14:20.415Z,5.45
2023-08-13T20:16:48.200Z,6.38
2023-08-13T20:19:15.882Z,5.78
2023-08-13T20:21:48.137Z,7.57
2023-08-13T20:24:15.981Z,9.63
2023-08-13T20:26:44.133Z,12.70
2023-08-13T20:29:15.263Z,5.07
2023-08-13T20:31:43.921Z,5.18
2023-08-13T20:34:11.990Z,7.35
2023-08-13T20:36:40.148Z,8.15
2023-08-13T20:39:08.472Z,6.03
2023-08-13T20:41:36.887Z,9.40
2023-08-13T20:44:05.281Z,5.82
2023-08-13T20:46:34.625Z,5.15
2023-08-13T20:49:05.161Z,5.45
2023-08-13T20:51:33.154Z,12.15
2023-08-13T20:54:00.921Z,6.22
2023-08-13T20:56:28.781Z,5.75
2023-08-13T20:58:56.634Z,6.63
2023-08-13T21:01:25.154Z,5.90
2023-08-13T21:03:54.356Z,6.25
2023-08-13T21:06:22.120Z,5.47
2023-08-13T21:08:49.841Z,4.32
2023-08-13T21:11:17.560Z,6.63
2023-08-13T21:13:45.296Z,8.35
2023-08-13T21:16:13.420Z,7.35
2023-08-13T21:18:41.190Z,9.00
2023-08-13T21:21:10.273Z,7.17
2023-08-13T21:23:38.070Z,4.32
2023-08-13T21:26:05.832Z,7.95
2023-08-13T21:28:33.798Z,5.50
2023-08-13T21:31:01.535Z,7.13
2023-08-13T21:33:29.412Z,6.13
2023-08-13T21:35:57.223Z,5.80
2023-08-13T21:38:26.286Z,7.77
2023-08-13T21:40:54.011Z,5.10
2023-08-13T21:43:22.446Z,10.80
2023-08-13T21:45:50.209Z,7.43
2023-08-13T21:48:18.095Z,7.40
2023-08-13T21:50:45.852Z,5.60
2023-08-13T21:53:13.550Z,6.50
2023-08-13T21:55:42.662Z,6.43
2023-08-13T21:58:10.447Z,5.73
2023-08-13T22:00:38.193Z,7.03
2023-08-13T22:03:06.216Z,6.20
2023-08-13T22:05:35.519Z,7.47
2023-08-13T22:08:03.298Z,5.60
2023-08-13T22:10:31.039Z,4.20
2023-08-13T22:13:00.265Z,6.33
2023-08-13T22:15:27.967Z,5.00
2023-08-13T22:17:55.830Z,6.00
2023-08-13T22:20:25.149Z,6.90
2023-08-13T22:22:53.797Z,5.80
2023-08-13T22:25:21.583Z,6.87
2023-08-13T22:27:49.626Z,6.93
2023-08-13T22:30:18.781Z,5.27
2023-08-13T22:32:46.572Z,6.27
2023-08-13T22:35:14.318Z,3.80
2023-08-13T22:37:42.117Z,4.77
2023-08-13T22:40:11.365Z,6.73
2023-08-13T22:42:39.126Z,6.20
2023-08-13T22:45:07.427Z,5.93
2023-08-13T22:47:36.573Z,7.27
2023-08-13T22:50:06.740Z,7.03
2023-08-13T22:52:34.514Z,6.17
2023-08-13T22:55:02.396Z,4.77
2023-08-13T22:57:30.146Z,6.00
2023-08-13T22:59:57.860Z,4.30
2023-08-13T23:02:25.614Z,7.03
2023-08-13T23:04:56.178Z,5.50
2023-08-13T23:07:24.090Z,5.07
2023-08-13T23:09:52.158Z,6.40
2023-08-13T23:12:20.028Z,6.60
2023-08-13T23:14:47.855Z,5.53
2023-08-13T23:17:15.654Z,7.07
2023-08-13T23:19:44.320Z,4.97
2023-08-13T23:22:13.553Z,5.40
2023-08-13T23:24:41.502Z,4.93
2023-08-13T23:27:09.320Z,5.30
2023-08-13T23:29:37.006Z,5.40
2023-08-13T23:32:05.147Z,9.07
2023-08-13T23:34:32.898Z,7.03
2023-08-13T23:37:00.624Z,10.47
2023-08-13T23:39:29.785Z,8.40
2023-08-13T23:41:57.609Z,5.73
2023-08-13T23:44:25.300Z,8.07
2023-08-13T23:46:55.212Z,6.70
2023-08-13T23:49:22.885Z,5.67
2023-08-13T23:51:50.554Z,7.07
2023-08-13T23:54:18.229Z,8.33
2023-08-13T23:56:47.286Z,6.13
2023-08-13T23:59:14.966Z,5.93
